Estación meteorológica de Montseny - Vallcàrquera (Vallès Oriental, Parc Natural del Montseny)

Consulta los datos en tiempo real de la estación meteorológica de Montseny - Vallcàrquera





Hora UTC 04:45
Temperatura 18.5 ºC
Humedad 78.1 %
Pluja 0.0 mm
Velocidad viento 2.3 km/h
Dirección viento NNE
Radiación solar 0.0 W/m²

Datos diarios 2026-09-04



Hora UTC (invierno +1h; verano +2h)
Temperatura (ºC) Humedad (%) Velocidad viento (km/h) Precipitación (mm) Radiación solar (W/m²)
Hora UTC Aire Humedad Vel. Dir. Vel. Max Dir. Intent. máx 5 min. Rad. Sol.
00:05 20.6 80.7 1.9 NNE 1.9 NNE 0.0 0.0
00:10 20.7 79.6 1.7 NE 3.2 ENE 0.0 0.0
00:15 20.7 79.6 1.6 NE 3.5 ENE 0.0 0.0
00:20 20.6 80.1 0.7 NNE 2.1 ENE 0.0 0.0
00:25 20.5 80.7 1.0 NNE 2.1 N 0.0 0.0
00:30 20.5 80.6 1.3 NE 2.5 NE 0.0 0.0
00:35 20.4 81.0 1.4 NE 3.9 ENE 0.0 0.0
00:40 20.6 79.9 2.3 NE 4.6 NNE 0.0 0.0
00:45 20.7 79.1 1.4 NNE 3.9 NE 0.0 0.0
00:50 20.7 79.6 2.3 NE 4.2 ENE 0.0 0.0
00:55 20.7 79.0 2.5 NE 4.9 NE 0.0 0.0
01:00 20.7 79.2 1.9 NE 3.5 NNE 0.0 0.0
01:05 20.6 79.6 2.8 ENE 4.6 ENE 0.0 0.0
01:10 20.6 79.1 2.1 NE 4.6 ENE 0.0 0.0
01:15 20.5 79.9 1.2 NNE 2.5 N 0.0 0.0
01:20 20.4 80.1 1.5 NE 3.5 ENE 0.0 0.0
01:25 20.5 79.3 1.5 NNE 4.2 NE 0.0 0.0
01:30 20.5 79.5 1.1 N 2.1 NNE 0.0 0.0
01:35 20.3 80.4 1.0 NNW 2.1 NNW 0.0 0.0
01:40 20.1 81.2 1.2 NNW 2.1 NNW 0.0 0.0
01:45 20.0 81.3 1.1 NNW 2.1 N 0.0 0.0
01:50 19.9 82.0 1.8 NE 3.5 ENE 0.0 0.0
01:55 20.1 81.1 2.7 NE 3.5 ENE 0.0 0.0
02:00 20.2 80.0 1.7 NE 3.2 NE 0.0 0.0
02:05 19.9 81.1 2.5 ENE 4.2 NE 0.0 0.0
02:10 19.9 80.4 1.7 NNE 3.2 NNE 0.0 0.0
02:15 19.9 80.0 1.0 N 2.1 N 0.0 0.0
02:20 19.8 80.4 1.3 NE 2.8 ENE 0.0 0.0
02:25 19.9 79.5 1.9 NE 3.2 ENE 0.0 0.0
02:30 19.7 80.3 2.9 ENE 5.6 E 0.0 0.0
02:35 19.3 82.0 3.6 ENE 6.0 ENE 0.0 0.0
02:40 19.3 80.0 4.4 ENE 6.4 ENE 0.0 0.0
02:45 19.4 79.5 1.8 NNE 3.9 NE 0.0 0.0
02:50 19.5 78.9 1.6 NE 3.2 ENE 0.0 0.0
02:55 19.6 76.9 1.8 NNE 3.9 NE 0.0 0.0
03:00 19.5 77.6 1.3 N 2.8 N 0.0 0.0
03:05 19.3 78.0 2.5 ENE 4.2 ENE 0.0 0.0
03:10 19.1 78.0 1.9 NNE 3.5 NNE 0.0 0.0
03:15 19.1 78.0 1.9 NE 4.6 ENE 0.0 0.0
03:20 18.9 76.9 3.0 NE 5.6 ENE 0.0 0.0
03:25 18.6 77.6 3.0 ENE 4.9 ENE 0.0 0.0
03:30 18.7 76.8 4.3 ENE 6.0 E 0.0 0.0
03:35 18.8 76.0 3.2 NE 6.0 E 0.0 0.0
03:40 18.9 76.8 2.0 NE 4.6 ENE 0.0 0.0
03:45 18.8 75.6 3.4 NE 7.1 ENE 0.0 0.0
03:50 18.8 76.1 1.8 NE 3.9 ENE 0.0 0.0
03:55 18.8 75.1 2.3 NE 4.6 ENE 0.0 0.0
04:00 18.8 74.8 2.3 NE 3.9 ENE 0.0 0.0
04:05 18.7 75.2 2.4 NE 4.2 ENE 0.0 0.0
04:10 18.7 76.9 1.3 NNE 2.5 NE 0.0 0.0
04:15 18.6 76.1 2.0 NE 3.9 ENE 0.0 0.0
04:20 18.6 77.4 1.7 N 3.2 NNE 0.0 0.0
04:25 18.4 78.6 1.3 NE 2.5 NE 0.0 0.0
04:30 18.4 78.5 0.8 NE 2.8 NE 0.0 0.0
04:35 18.5 78.7 1.3 ENE 3.5 ENE 0.0 0.0
04:40 18.4 77.2 1.5 NE 3.2 ENE 0.0 0.0
04:45 18.5 78.1 2.3 NNE 4.2 ENE 0.0 0.0
Máxima 20.7 82.0 4.4 ENE 7.1 ENE 0.0 0.0
Mínima 18.4 74.8
Total 0.0